Time;durP1;ratioP1;P1;durP2;ratioP2;P2;SDS_P1;SDS_P2;PMS_P1;PMS_P2;Temp;Humidity;BMP_temperature;BMP_pressure;BME280_temperature;BME280_humidity;BME280_pressure;Samples;Min_cycle;Max_cycle;Signal;HPM_P1;HPM_P2
2023/01/26 10:44:42;;;;;;;41.05;11.18;;;3.10;99.90;;;;;;5067732;28;20846;-62
2023/01/26 10:47:15;;;;;;;44.22;12.05;;;3.30;99.90;;;;;;5061925;28;20611;-64
2023/01/26 10:49:41;;;;;;;39.63;12.35;;;3.50;99.90;;;;;;5065289;28;20021;-65
2023/01/26 10:52:24;;;;;;;41.53;11.77;;;3.60;99.90;;;;;;5067514;28;20028;-64
2023/01/26 10:55:18;;;;;;;46.40;11.77;;;3.80;99.90;;;;;;5067370;28;20021;-66
2023/01/26 10:57:44;;;;;;;42.75;11.20;;;3.90;99.90;;;;;;5048037;28;20075;-65
2023/01/26 11:00:33;;;;;;;35.90;11.25;;;4.10;99.90;;;;;;5046611;28;20013;-64
2023/01/26 11:03:17;;;;;;;46.10;13.60;;;4.20;99.90;;;;;;5043014;28;20053;-63
2023/01/26 11:05:43;;;;;;;48.80;13.80;;;4.20;99.90;;;;;;5055949;28;20051;-62
2023/01/26 11:08:35;;;;;;;38.35;12.85;;;4.40;99.90;;;;;;5067615;28;20028;-64
2023/01/26 11:11:02;;;;;;;45.67;14.63;;;4.40;99.90;;;;;;5067974;28;20013;-62
2023/01/26 11:13:29;;;;;;;44.97;13.02;;;4.50;99.90;;;;;;5066840;28;20016;-64
2023/01/26 11:16:18;;;;;;;49.28;12.85;;;4.60;99.90;;;;;;5067213;28;20025;-63
2023/01/26 11:19:05;;;;;;;43.50;11.85;;;4.60;99.90;;;;;;5067847;28;20021;-63
2023/01/26 11:21:47;;;;;;;43.70;12.38;;;4.70;99.90;;;;;;5065622;28;20063;-63
2023/01/26 11:24:27;;;;;;;45.53;11.68;;;4.70;99.90;;;;;;5065193;28;20085;-63
2023/01/26 11:27:17;;;;;;;45.97;11.83;;;4.70;99.90;;;;;;5067017;28;20326;-63
2023/01/26 11:30:05;;;;;;;37.67;11.68;;;4.80;99.90;;;;;;5066528;28;20094;-64
2023/01/26 11:32:34;;;;;;;45.55;12.43;;;4.80;99.90;;;;;;5066392;28;20115;-63
2023/01/26 11:35:27;;;;;;;46.67;11.95;;;4.70;99.90;;;;;;5066765;28;20053;-65
2023/01/26 11:38:17;;;;;;;43.70;11.55;;;4.70;99.90;;;;;;5066822;28;20021;-63
2023/01/26 11:40:51;;;;;;;34.88;11.57;;;4.70;99.90;;;;;;5067693;28;20194;-64
2023/01/26 11:43:48;;;;;;;46.67;12.93;;;4.80;99.90;;;;;;5067012;28;20058;-63
2023/01/26 11:46:32;;;;;;;39.35;10.65;;;4.80;99.90;;;;;;5066475;28;20028;-64
2023/01/26 11:49:06;;;;;;;44.72;12.18;;;4.80;99.90;;;;;;5067332;28;20028;-64
2023/01/26 11:51:55;;;;;;;39.33;12.45;;;4.90;99.90;;;;;;5066467;28;20032;-63
2023/01/26 11:54:43;;;;;;;38.00;10.32;;;4.90;99.90;;;;;;5060159;28;20136;-63
2023/01/26 11:57:26;;;;;;;33.42;9.15;;;5.00;99.90;;;;;;5054192;28;20047;-63
2023/01/26 17:16:50;;;;;;;28.60;10.20;;;6.20;99.90;;;;;;5128543;27;20326;-62
2023/01/26 17:19:15;;;;;;;21.35;7.80;;;6.20;99.90;;;;;;5128476;28;20033;-62
2023/01/26 17:21:41;;;;;;;20.75;8.52;;;6.30;99.90;;;;;;5128830;27;20024;-62
2023/01/26 17:24:07;;;;;;;25.50;7.68;;;6.30;99.90;;;;;;5120439;28;20066;-61
2023/01/26 17:26:32;;;;;;;24.65;9.35;;;6.40;99.90;;;;;;5108698;28;20456;-62
2023/01/26 17:28:58;;;;;;;36.83;11.63;;;6.50;99.90;;;;;;5107659;28;20028;-63
2023/01/26 17:31:24;;;;;;;17.67;5.05;;;6.50;99.90;;;;;;5121336;28;20027;-63
2023/01/26 17:33:50;;;;;;;9.38;3.15;;;6.60;99.90;;;;;;5129132;28;20051;-62
2023/01/26 17:36:17;;;;;;;15.98;6.50;;;6.60;99.90;;;;;;5129461;28;20039;-62
2023/01/26 17:38:43;;;;;;;12.95;4.00;;;6.60;99.90;;;;;;5128907;28;20024;-62
2023/01/26 17:41:09;;;;;;;13.95;4.00;;;6.60;99.90;;;;;;5127778;28;20052;-62
2023/01/26 17:43:35;;;;;;;11.30;2.83;;;6.70;99.90;;;;;;5129630;27;20027;-62
2023/01/26 17:46:06;;;;;;;24.33;7.13;;;6.70;99.90;;;;;;5112239;28;20401;-63
2023/01/26 17:48:33;;;;;;;15.18;4.70;;;6.70;99.90;;;;;;5108565;28;20046;-62
2023/01/26 17:50:58;;;;;;;8.48;4.18;;;6.70;99.90;;;;;;5107459;28;20337;-62
2023/01/26 17:53:24;;;;;;;11.55;4.88;;;6.70;99.90;;;;;;5108820;28;20014;-62
2023/01/26 17:55:53;;;;;;;11.98;4.82;;;6.70;99.90;;;;;;5107775;28;20105;-62
2023/01/26 17:58:18;;;;;;;15.10;5.32;;;6.70;99.90;;;;;;5107560;28;20020;-62
2023/01/26 18:00:44;;;;;;;14.13;5.45;;;6.70;99.90;;;;;;5124747;27;20027;-62
2023/01/26 18:03:10;;;;;;;11.77;3.92;;;6.70;99.90;;;;;;5128447;27;20023;-62
2023/01/26 18:05:35;;;;;;;10.93;4.18;;;6.70;99.90;;;;;;5129073;28;20111;-62
2023/01/26 18:08:01;;;;;;;16.83;6.05;;;6.70;99.90;;;;;;5128710;28;20015;-62
2023/01/26 18:10:30;;;;;;;22.27;7.85;;;6.70;99.90;;;;;;5128196;27;20076;-63
2023/01/26 18:12:56;;;;;;;15.25;5.55;;;6.70;99.90;;;;;;5127761;28;20026;-63
2023/01/26 18:15:22;;;;;;;17.77;5.10;;;6.60;99.90;;;;;;5112632;28;20071;-63
2023/01/26 18:17:48;;;;;;;15.65;5.18;;;6.60;99.90;;;;;;5107640;28;20062;-62
2023/01/26 18:20:13;;;;;;;29.50;11.40;;;6.60;99.90;;;;;;5108265;28;20429;-63
2023/01/26 18:22:39;;;;;;;20.88;8.48;;;6.60;99.90;;;;;;5108078;28;20023;-62
2023/01/26 18:25:05;;;;;;;19.73;7.18;;;6.60;99.90;;;;;;5107434;28;20171;-64
2023/01/26 18:27:31;;;;;;;16.00;6.43;;;6.60;99.90;;;;;;5098366;28;20422;-65
2023/01/26 18:29:57;;;;;;;24.15;6.32;;;6.60;99.90;;;;;;5107351;28;20019;-62
2023/01/26 18:32:22;;;;;;;11.05;4.50;;;6.60;99.90;;;;;;5114816;28;20024;-62
2023/01/26 18:34:48;;;;;;;25.45;8.05;;;6.60;99.90;;;;;;5097054;28;20040;-61
2023/01/26 18:37:13;;;;;;;10.13;3.80;;;6.60;99.90;;;;;;5083667;28;20055;-62
2023/01/26 18:39:39;;;;;;;12.23;3.47;;;6.60;99.90;;;;;;5090664;28;20039;-62
2023/01/26 18:42:04;;;;;;;11.70;5.00;;;6.60;99.90;;;;;;5090754;28;20012;-62
2023/01/26 18:44:30;;;;;;;21.02;5.90;;;6.60;99.90;;;;;;5091479;28;20035;-61
2023/01/26 18:46:56;;;;;;;32.53;12.48;;;6.60;99.90;;;;;;5089479;28;20020;-62
2023/01/26 18:49:21;;;;;;;17.63;6.90;;;6.60;99.90;;;;;;5092103;28;20020;-61
2023/01/26 18:51:47;;;;;;;14.98;5.20;;;6.60;99.90;;;;;;5092657;28;20554;-63
2023/01/26 18:54:15;;;;;;;14.88;4.70;;;6.60;99.90;;;;;;5096900;28;20017;-62
2023/01/26 18:56:40;;;;;;;13.52;4.13;;;6.60;99.90;;;;;;5083751;28;20027;-62
2023/01/26 18:59:11;;;;;;;12.20;3.67;;;6.60;99.90;;;;;;5095429;28;20023;-63
2023/01/26 19:01:37;;;;;;;10.27;1.90;;;6.50;99.90;;;;;;5112571;28;20090;-63
2023/01/26 19:04:06;;;;;;;9.77;2.80;;;6.60;99.90;;;;;;5094617;28;20106;-62
2023/01/26 19:06:32;;;;;;;7.82;2.45;;;6.60;99.90;;;;;;5089905;28;20358;-63
2023/01/26 19:09:01;;;;;;;11.55;2.70;;;6.50;99.90;;;;;;5094025;28;20401;-63
2023/01/26 19:11:29;;;;;;;7.05;2.05;;;6.50;99.90;;;;;;5071286;28;20060;-63
2023/01/26 19:13:55;;;;;;;8.77;2.50;;;6.50;99.90;;;;;;5071689;28;20548;-64
2023/01/26 19:16:21;;;;;;;9.23;2.50;;;6.50;99.90;;;;;;5085407;28;20044;-63
2023/01/26 19:18:47;;;;;;;12.90;3.17;;;6.50;99.90;;;;;;5111934;28;20012;-63
2023/01/26 19:21:12;;;;;;;10.98;2.40;;;6.50;99.90;;;;;;5112860;28;20365;-63
2023/01/26 19:23:38;;;;;;;12.57;3.10;;;6.50;99.90;;;;;;5111380;28;20023;-64
2023/01/26 19:26:20;;;;;;;10.32;2.20;;;6.50;99.90;;;;;;5110082;28;20204;-63
2023/01/26 19:28:47;;;;;;;10.65;1.90;;;6.50;99.90;;;;;;5113232;28;20027;-62
2023/01/26 19:31:13;;;;;;;9.30;2.05;;;6.50;99.90;;;;;;5107815;28;20028;-63
2023/01/26 19:33:39;;;;;;;9.93;2.22;;;6.50;99.90;;;;;;5091738;28;20028;-63
2023/01/26 19:36:06;;;;;;;8.50;2.35;;;6.50;99.90;;;;;;5092373;28;20535;-63
2023/01/26 19:38:33;;;;;;;10.02;2.47;;;6.50;99.90;;;;;;5099947;28;20043;-63
2023/01/26 19:41:00;;;;;;;12.77;2.42;;;6.50;99.90;;;;;;5111237;28;20110;-62
2023/01/26 19:43:26;;;;;;;9.13;3.55;;;6.50;99.90;;;;;;5111281;28;20095;-61
2023/01/26 19:45:54;;;;;;;10.73;2.85;;;6.50;99.90;;;;;;5108689;28;20011;-61
2023/01/26 19:48:21;;;;;;;7.78;2.42;;;6.50;99.90;;;;;;5097450;28;20077;-62
2023/01/26 19:51:04;;;;;;;9.98;2.20;;;6.50;99.90;;;;;;5112723;28;20026;-63
2023/01/26 19:53:35;;;;;;;10.73;2.28;;;6.50;99.90;;;;;;5108019;28;20483;-62
2023/01/26 19:56:06;;;;;;;5.35;1.88;;;6.50;99.90;;;;;;5112569;28;20082;-63
2023/01/26 19:58:32;;;;;;;;;;;6.50;99.90;;;;;;5111703;28;20035;-61
2023/01/26 20:01:07;;;;;;;12.20;2.95;;;6.50;99.90;;;;;;5111662;28;19900;-62
2023/01/26 20:03:34;;;;;;;7.70;2.00;;;6.50;99.90;;;;;;5094784;28;20032;-64
2023/01/26 20:05:59;;;;;;;12.35;3.00;;;6.50;99.90;;;;;;5095475;28;20020;-62
2023/01/26 20:08:27;;;;;;;11.55;2.50;;;6.50;99.90;;;;;;5101814;28;20111;-62
2023/01/26 20:10:52;;;;;;;11.63;3.25;;;6.50;99.90;;;;;;5091768;28;20500;-62
2023/01/26 20:13:18;;;;;;;6.43;2.25;;;6.50;99.90;;;;;;5091853;28;20020;-62
2023/01/26 20:15:44;;;;;;;6.95;2.13;;;6.50;99.90;;;;;;5093920;28;20051;-63
2023/01/26 20:18:10;;;;;;;11.00;2.50;;;6.50;99.90;;;;;;5112365;28;20044;-62
2023/01/26 20:20:36;;;;;;;9.73;2.42;;;6.50;99.90;;;;;;5112083;28;20028;-62
2023/01/26 20:23:01;;;;;;;9.00;2.13;;;6.50;99.90;;;;;;5111258;28;20020;-62
2023/01/26 20:25:27;;;;;;;10.10;3.33;;;6.50;99.90;;;;;;5093604;28;20050;-62
2023/01/26 20:27:53;;;;;;;7.97;2.00;;;6.40;99.90;;;;;;5091619;28;20012;-62
2023/01/26 20:30:19;;;;;;;12.52;2.13;;;6.40;99.90;;;;;;5091138;28;20085;-62
2023/01/26 20:32:44;;;;;;;11.20;2.72;;;6.40;99.90;;;;;;5111116;28;20081;-62
2023/01/26 20:35:12;;;;;;;11.05;2.85;;;6.40;99.90;;;;;;5112374;28;20438;-61
2023/01/26 20:37:38;;;;;;;11.35;2.55;;;6.40;99.90;;;;;;5110262;28;20024;-62
2023/01/26 20:40:05;;;;;;;7.43;2.30;;;6.40;99.90;;;;;;5112164;28;20029;-62
2023/01/26 20:42:32;;;;;;;10.65;2.50;;;6.40;99.90;;;;;;5112801;28;20143;-61
2023/01/26 20:44:57;;;;;;;8.18;2.10;;;6.40;99.90;;;;;;5111140;28;20020;-62
2023/01/26 20:47:24;;;;;;;9.77;2.20;;;6.40;99.90;;;;;;5091857;28;20032;-61
